Time;durP1;ratioP1;P1;durP2;ratioP2;P2;SDS_P1;SDS_P2;PMS_P1;PMS_P2;Temp;Humidity;BMP_temperature;BMP_pressure;BME280_temperature;BME280_humidity;BME280_pressure;Samples;Min_cycle;Max_cycle;Signal;HPM_P1;HPM_P2
2022/05/14 00:02:13;;;;;;;7.90;5.30;;;;;;;12.94;65.43;98609.52;106390;1277;138249;-83
2022/05/14 00:04:41;;;;;;;8.70;4.60;;;;;;;12.93;65.27;98610.65;106804;1277;22548;-83
2022/05/14 00:07:23;;;;;;;5.90;5.20;;;;;;;12.94;65.32;98612.46;106473;1277;138417;-83
2022/05/14 00:09:51;;;;;;;6.00;4.90;;;;;;;12.95;65.30;98610.94;106812;1277;22625;-83
2022/05/14 00:15:04;;;;;;;7.10;5.60;;;;;;;12.96;65.19;98611.11;106393;1280;137657;-83
2022/05/14 00:17:31;;;;;;;6.70;5.50;;;;;;;12.97;65.30;98614.46;106192;1280;24267;-83
2022/05/14 00:20:16;;;;;;;10.50;5.60;;;;;;;12.96;65.12;98619.27;106288;1280;137911;-83
2022/05/14 00:22:42;;;;;;;6.60;5.40;;;;;;;12.96;65.10;98622.49;106429;1277;23913;-83
2022/05/14 00:25:13;;;;;;;6.60;4.80;;;;;;;12.94;65.14;98620.94;106155;1277;137924;-83
2022/05/14 00:27:45;;;;;;;7.50;4.90;;;;;;;12.94;65.49;98621.31;106374;1277;22580;-83
2022/05/14 00:30:40;;;;;;;8.40;6.10;;;;;;;12.92;65.26;98624.36;106475;1280;22724;-83
2022/05/14 00:33:08;;;;;;;8.70;5.50;;;;;;;12.88;65.42;98621.41;105983;1277;138284;-83
2022/05/14 00:35:38;;;;;;;7.60;5.10;;;;;;;12.82;65.40;98623.86;106483;1277;22559;-83
2022/05/14 00:38:05;;;;;;;7.10;4.60;;;;;;;12.79;65.73;98625.58;106253;1277;138599;-83
2022/05/14 00:40:48;;;;;;;7.10;5.00;;;;;;;12.77;66.18;98626.54;106490;1280;24444;-83
2022/05/14 00:43:16;;;;;;;7.20;4.90;;;;;;;12.73;66.36;98626.89;106185;1280;138056;-82
2022/05/14 00:45:51;;;;;;;7.80;4.90;;;;;;;12.71;66.48;98631.17;106426;1280;25310;-83
2022/05/14 00:48:18;;;;;;;9.20;5.70;;;;;;;12.67;66.56;98628.94;106197;1277;22577;-83
2022/05/14 00:50:55;;;;;;;9.60;5.50;;;;;;;12.65;66.94;98633.89;105903;1280;137820;-85
2022/05/14 00:53:27;;;;;;;;;;;;;;;12.61;67.02;98634.32;106531;1277;25385;-83
2022/05/14 00:55:57;;;;;;;7.30;5.40;;;;;;;12.56;67.29;98633.23;106015;1278;124231;-83
2022/05/14 00:58:38;;;;;;;12.00;6.20;;;;;;;12.51;67.08;98632.02;106420;1277;24231;-83
2022/05/14 01:01:05;;;;;;;9.20;5.10;;;;;;;12.46;67.32;98626.31;106077;1277;139143;-83
2022/05/14 01:03:33;;;;;;;7.70;5.60;;;;;;;12.41;67.45;98629.52;106719;1277;22691;-83
2022/05/14 01:06:04;;;;;;;9.10;5.80;;;;;;;12.34;67.54;98624.80;106311;1280;23947;-83
2022/05/14 01:08:34;;;;;;;8.80;5.20;;;;;;;12.25;67.88;98627.14;106240;1280;137667;-83
2022/05/14 01:11:03;;;;;;;9.10;5.80;;;;;;;12.19;67.89;98625.63;106360;1280;24351;-83
2022/05/14 01:13:32;;;;;;;8.70;5.80;;;;;;;12.12;68.08;98624.59;106031;1280;137840;-83
2022/05/14 01:16:02;;;;;;;10.40;6.30;;;;;;;12.07;68.46;98631.23;106631;1277;25327;-82
2022/05/14 01:18:36;;;;;;;8.70;6.00;;;;;;;12.01;68.69;98627.23;106377;1277;23311;-83
2022/05/14 01:21:27;;;;;;;9.40;5.40;;;;;;;11.98;68.62;98626.68;106094;1277;138246;-83
2022/05/14 01:26:52;;;;;;;7.30;5.80;;;;;;;11.94;69.00;98628.00;106048;1278;138120;-83
2022/05/14 01:29:23;;;;;;;10.30;6.00;;;;;;;11.85;68.82;98630.84;106317;1280;22540;-83
2022/05/14 01:31:56;;;;;;;9.60;6.00;;;;;;;11.75;69.02;98630.95;106298;1278;138111;-83
2022/05/14 01:34:35;;;;;;;9.30;6.20;;;;;;;11.68;69.23;98633.98;106346;1278;24215;-83
2022/05/14 01:37:06;;;;;;;9.00;6.70;;;;;;;11.63;69.48;98636.63;106285;1277;137823;-83
2022/05/14 01:39:37;;;;;;;7.80;6.30;;;;;;;11.57;69.86;98637.26;106606;1276;22633;-83
2022/05/14 01:42:09;;;;;;;8.50;6.30;;;;;;;11.53;69.86;98638.77;106231;1278;25344;-83
2022/05/14 01:44:43;;;;;;;12.20;6.40;;;;;;;11.50;69.82;98640.52;106056;1280;138324;-83
2022/05/14 01:47:11;;;;;;;7.00;6.00;;;;;;;11.47;70.04;98642.48;105943;1280;22568;-85
2022/05/14 01:49:38;;;;;;;8.80;6.70;;;;;;;11.44;70.26;98636.04;106293;1278;137712;-83
2022/05/14 01:52:05;;;;;;;8.10;6.00;;;;;;;11.41;70.48;98638.85;106094;1280;22538;-84
2022/05/14 01:54:33;;;;;;;9.90;6.80;;;;;;;11.38;70.47;98639.16;106827;1277;22554;-86
2022/05/14 01:57:14;;;;;;;8.30;6.10;;;;;;;11.34;70.65;98638.38;106106;1277;137310;-84
2022/05/14 01:59:41;;;;;;;9.80;6.20;;;;;;;11.30;70.55;98642.13;106113;1280;25459;-83
2022/05/14 02:02:18;;;;;;;10.30;6.70;;;;;;;11.28;70.89;98643.17;106078;1277;138172;-84
2022/05/14 02:04:47;;;;;;;9.00;6.80;;;;;;;11.27;70.92;98643.49;106035;1280;22589;-84
2022/05/14 02:07:18;;;;;;;9.30;7.40;;;;;;;11.24;70.78;98641.74;105910;1280;137847;-84
2022/05/14 02:09:45;;;;;;;9.60;7.30;;;;;;;11.21;70.93;98632.59;106028;1279;24818;-84
2022/05/14 02:12:16;;;;;;;8.60;6.90;;;;;;;11.17;71.09;98629.61;106125;1280;22697;-84
2022/05/14 02:14:45;;;;;;;10.20;6.50;;;;;;;11.12;70.99;98629.97;106021;1277;137514;-84
2022/05/14 02:17:13;;;;;;;8.90;6.60;;;;;;;11.06;71.07;98623.80;106228;1280;24292;-84
2022/05/14 02:19:40;;;;;;;6.90;5.60;;;;;;;10.99;71.36;98622.04;106334;1280;138099;-84
2022/05/14 02:22:08;;;;;;;12.90;7.70;;;;;;;10.95;71.56;98623.70;106105;1280;22545;-84
2022/05/14 02:24:51;;;;;;;9.80;8.10;;;;;;;10.92;71.72;98627.52;106361;1280;23246;-84
2022/05/14 02:27:24;;;;;;;10.80;7.90;;;;;;;10.91;71.84;98629.14;105888;1280;138135;-84
2022/05/14 02:29:51;;;;;;;10.30;7.20;;;;;;;10.89;71.92;98631.92;105938;1280;24427;-84
2022/05/14 02:32:27;;;;;;;9.00;6.80;;;;;;;10.86;71.94;98633.61;106197;1280;138542;-84
2022/05/14 02:34:58;;;;;;;10.00;6.70;;;;;;;10.77;71.28;98638.24;106157;1280;25307;-84
2022/05/14 02:37:36;;;;;;;10.00;8.10;;;;;;;10.58;71.35;98632.70;105964;1278;139449;-84
2022/05/14 02:40:10;;;;;;;12.00;8.00;;;;;;;10.40;71.67;98635.63;105951;1280;22534;-85
2022/05/14 02:42:37;;;;;;;8.30;7.40;;;;;;;10.28;72.19;98632.63;106182;1278;24317;-85
2022/05/14 02:45:10;;;;;;;9.80;7.00;;;;;;;10.23;72.82;98628.48;106110;1280;137768;-84
2022/05/14 02:47:37;;;;;;;11.60;6.80;;;;;;;10.20;72.81;98631.51;106282;1280;23043;-84
2022/05/14 02:50:08;;;;;;;9.50;7.50;;;;;;;10.17;73.08;98627.14;106080;1278;139349;-84
2022/05/14 02:52:38;;;;;;;11.00;7.10;;;;;;;10.15;73.42;98629.77;106727;1279;22689;-84
2022/05/14 02:55:08;;;;;;;11.20;8.40;;;;;;;10.14;73.66;98632.80;105960;1280;138009;-84
2022/05/14 02:57:48;;;;;;;11.60;7.70;;;;;;;10.12;73.83;98627.64;106097;1280;30676;-84
2022/05/14 03:00:18;;;;;;;12.10;8.00;;;;;;;10.11;73.81;98626.19;106436;1277;25373;-84
2022/05/14 03:02:48;;;;;;;9.60;7.50;;;;;;;10.11;73.85;98626.84;106077;1277;138479;-84
2022/05/14 03:05:21;;;;;;;15.00;8.20;;;;;;;10.08;73.93;98626.49;106112;1280;25435;-84
2022/05/14 03:07:49;;;;;;;11.90;7.90;;;;;;;10.02;74.03;98629.00;105933;1280;137809;-84
2022/05/14 03:10:19;;;;;;;11.60;8.80;;;;;;;9.96;74.19;98633.41;106154;1278;22622;-84
2022/05/14 03:12:50;;;;;;;14.10;8.60;;;;;;;9.92;74.51;98636.25;106099;1280;22557;-84
2022/05/14 03:15:16;;;;;;;12.90;8.50;;;;;;;9.87;74.79;98637.88;105960;1280;137522;-84
2022/05/14 03:17:55;;;;;;;13.20;8.10;;;;;;;9.85;74.98;98635.57;106429;1278;22574;-84
2022/05/14 03:20:22;;;;;;;12.40;8.50;;;;;;;9.85;75.03;98636.83;106183;1278;137998;-84
2022/05/14 03:22:52;;;;;;;11.70;8.20;;;;;;;9.86;75.18;98632.59;106280;1277;22621;-84
2022/05/14 03:25:24;;;;;;;9.80;8.10;;;;;;;9.86;75.21;98638.08;106121;1278;137863;-84
2022/05/14 03:27:52;;;;;;;13.00;8.20;;;;;;;9.84;75.23;98640.50;106281;1277;25358;-84
2022/05/14 03:30:33;;;;;;;10.60;8.00;;;;;;;9.83;75.13;98640.89;106029;1280;22557;-84
2022/05/14 03:33:03;;;;;;;10.50;7.90;;;;;;;9.82;75.30;98642.82;106070;1278;138356;-85
2022/05/14 03:35:44;;;;;;;10.50;8.70;;;;;;;9.84;75.31;98644.56;106011;1278;22614;-85
2022/05/14 03:38:11;;;;;;;10.50;8.00;;;;;;;9.85;75.36;98643.18;106264;1277;137701;-84
2022/05/14 03:40:41;;;;;;;10.90;7.90;;;;;;;9.87;75.30;98646.88;106027;1278;24319;-85
2022/05/14 03:43:08;;;;;;;16.20;9.80;;;;;;;9.89;75.34;98647.51;106288;1277;138500;-85
2022/05/14 03:45:40;;;;;;;13.80;8.10;;;;;;;9.91;75.20;98645.81;106181;1278;22577;-84
2022/05/14 03:48:13;;;;;;;11.80;8.30;;;;;;;9.90;75.12;98646.77;106197;1280;25418;-85
2022/05/14 03:50:43;;;;;;;13.30;9.00;;;;;;;9.89;75.08;98644.75;105906;1278;138384;-84
2022/05/14 03:53:11;;;;;;;11.70;8.20;;;;;;;9.89;75.21;98648.93;106440;1278;24287;-84
2022/05/14 03:55:38;;;;;;;11.00;8.10;;;;;;;9.90;75.02;98648.08;105851;1280;138035;-84
2022/05/14 03:58:05;;;;;;;12.10;8.60;;;;;;;9.92;75.12;98647.59;106045;1280;25255;-84
2022/05/14 04:00:32;;;;;;;15.30;8.90;;;;;;;9.97;75.03;98649.27;106267;1277;23908;-84
2022/05/14 04:03:02;;;;;;;11.30;8.10;;;;;;;10.00;74.76;98645.98;105940;1278;137606;-84
2022/05/14 04:05:35;;;;;;;12.40;8.20;;;;;;;10.04;74.67;98644.65;106158;1277;23127;-85
2022/05/14 04:08:02;;;;;;;13.00;8.20;;;;;;;10.04;74.39;98647.98;106049;1280;138001;-84
2022/05/14 04:10:30;;;;;;;11.20;8.50;;;;;;;10.03;74.47;98648.77;106036;1280;22535;-85
2022/05/14 04:13:01;;;;;;;14.40;8.40;;;;;;;10.03;74.37;98655.46;106103;1277;25235;-84
2022/05/14 04:15:30;;;;;;;15.90;8.60;;;;;;;10.05;74.48;98656.45;105940;1280;137506;-85
2022/05/14 04:18:06;;;;;;;16.20;8.70;;;;;;;10.14;74.40;98655.58;106763;1277;22564;-85
2022/05/14 04:20:35;;;;;;;;;;;;;;;10.20;74.52;98660.08;106466;1280;138145;-85
2022/05/14 04:23:08;;;;;;;12.10;8.40;;;;;;;10.27;74.47;98660.08;106800;1277;22537;-85
2022/05/14 04:25:37;;;;;;;12.60;8.10;;;;;;;10.35;74.30;98661.38;106167;1278;138107;-85
2022/05/14 04:28:05;;;;;;;12.60;8.00;;;;;;;10.40;73.95;98663.49;106517;1276;26570;-85
2022/05/14 04:30:31;;;;;;;11.20;7.70;;;;;;;10.50;73.99;98663.11;106955;1277;22568;-85
2022/05/14 04:32:59;;;;;;;23.20;10.80;;;;;;;10.59;73.92;98667.33;106436;1278;137710;-85
2022/05/14 04:35:40;;;;;;;17.10;9.10;;;;;;;10.67;73.76;98669.08;106592;1277;22694;-85
2022/05/14 04:38:07;;;;;;;10.70;9.00;;;;;;;10.71;73.61;98670.52;106831;1277;137937;-85
2022/05/14 04:40:35;;;;;;;14.70;8.80;;;;;;;10.74;73.77;98673.16;106457;1277;22589;-85
2022/05/14 04:43:10;;;;;;;13.10;8.10;;;;;;;10.77;73.61;98674.91;106532;1277;22554;-85
2022/05/14 04:45:38;;;;;;;11.90;7.70;;;;;;;10.81;73.73;98674.61;106489;1280;138687;-85
2022/05/14 04:48:07;;;;;;;13.80;8.10;;;;;;;10.87;73.66;98678.26;106691;1278;24386;-85
2022/05/14 04:50:35;;;;;;;13.80;8.70;;;;;;;10.89;73.53;98679.16;106219;1280;138310;-85
2022/05/14 04:53:02;;;;;;;15.10;8.90;;;;;;;10.94;73.87;98682.43;106411;1281;23246;-84
2022/05/14 04:55:29;;;;;;;12.20;8.30;;;;;;;11.00;74.16;98683.38;106603;1278;138126;-85
2022/05/14 04:57:59;;;;;;;11.90;9.10;;;;;;;11.12;73.99;98694.34;106658;1277;25468;-85
2022/05/14 05:00:27;;;;;;;13.50;8.70;;;;;;;11.23;73.62;98692.11;106502;1277;22610;-85
2022/05/14 05:05:36;;;;;;;15.80;7.70;;;;;;;11.48;72.96;98687.48;106516;1278;23357;-85
2022/05/14 05:08:03;;;;;;;10.60;7.30;;;;;;;11.58;72.52;98684.94;106834;1277;137931;-85
2022/05/14 05:10:45;;;;;;;11.00;7.20;;;;;;;11.70;71.94;98690.60;106193;1280;25379;-85
2022/05/14 05:13:15;;;;;;;14.30;7.80;;;;;;;11.79;71.59;98689.84;106216;1277;25255;-85
2022/05/14 05:15:42;;;;;;;10.60;7.10;;;;;;;11.89;71.36;98694.64;106515;1278;137988;-85
2022/05/14 05:18:10;;;;;;;13.60;7.70;;;;;;;11.98;70.72;98694.75;106440;1277;22704;-85
2022/05/14 05:20:40;;;;;;;16.60;8.70;;;;;;;12.03;70.36;98697.06;106627;1277;138516;-86
2022/05/14 05:23:12;;;;;;;12.40;7.50;;;;;;;12.08;70.33;98697.48;106514;1277;25352;-86
2022/05/14 05:25:39;;;;;;;12.60;7.10;;;;;;;12.14;69.68;98694.63;106150;1278;138084;-86
2022/05/14 05:28:20;;;;;;;11.50;7.00;;;;;;;12.22;69.21;98696.54;106341;1279;22556;-87
2022/05/14 05:30:48;;;;;;;10.50;6.60;;;;;;;12.27;68.93;98695.15;106379;1278;24235;-85
2022/05/14 05:33:18;;;;;;;7.60;5.80;;;;;;;12.34;68.43;98694.61;106262;1277;138616;-84
2022/05/14 05:35:45;;;;;;;11.30;6.40;;;;;;;12.45;68.63;98699.67;106500;1280;22555;-86
2022/05/14 05:38:13;;;;;;;11.20;5.90;;;;;;;12.55;67.54;98695.55;106652;1278;138032;-84
2022/05/14 05:40:40;;;;;;;9.50;6.10;;;;;;;12.65;67.14;98694.70;107096;1277;29748;-85
2022/05/14 05:43:09;;;;;;;11.50;6.10;;;;;;;12.75;66.98;98690.19;106731;1277;25248;-84
2022/05/14 05:45:38;;;;;;;10.40;5.60;;;;;;;12.85;66.55;98687.80;106432;1277;137855;-85
2022/05/14 05:48:05;;;;;;;11.80;5.20;;;;;;;12.95;66.15;98694.32;107349;1277;22534;-85
2022/05/14 05:50:33;;;;;;;9.10;5.90;;;;;;;13.05;65.78;98693.36;106081;1277;138050;-85
2022/05/14 05:53:00;;;;;;;10.40;5.70;;;;;;;13.16;65.27;98692.49;106368;1280;22553;-84
2022/05/14 05:58:08;;;;;;;9.50;5.10;;;;;;;13.37;63.90;98682.73;106495;1277;22528;-84
2022/05/14 06:00:36;;;;;;;7.70;3.50;;;;;;;13.44;63.71;98681.94;105981;1281;24228;-85
2022/05/14 06:03:03;;;;;;;10.10;4.30;;;;;;;13.54;63.11;98684.81;106261;1277;138050;-84
2022/05/14 06:05:30;;;;;;;11.00;4.50;;;;;;;13.63;62.81;98678.40;106369;1277;25273;-85
2022/05/14 06:07:57;;;;;;;6.30;3.40;;;;;;;13.73;62.21;98676.77;106030;1279;138411;-85
2022/05/14 06:10:24;;;;;;;8.50;3.80;;;;;;;13.81;61.10;98675.60;106165;1281;22589;-85
2022/05/14 06:12:51;;;;;;;6.40;3.70;;;;;;;13.86;60.77;98673.27;105953;1281;25257;-84
2022/05/14 06:15:19;;;;;;;10.30;4.80;;;;;;;13.93;61.28;98676.23;106261;1277;137476;-85
2022/05/14 06:17:46;;;;;;;13.20;4.50;;;;;;;14.00;60.93;98675.15;106111;1278;22665;-85
2022/05/14 06:20:15;;;;;;;9.20;4.20;;;;;;;14.07;60.35;98673.95;106210;1277;137690;-79
2022/05/14 06:22:43;;;;;;;8.40;3.70;;;;;;;14.15;60.41;98675.15;106281;1277;24431;-80
2022/05/14 06:25:12;;;;;;;6.40;4.00;;;;;;;14.24;60.00;98672.86;106315;1277;22623;-80
2022/05/14 06:27:39;;;;;;;11.90;3.60;;;;;;;14.33;59.55;98679.65;106081;1277;137809;-81
2022/05/14 06:30:07;;;;;;;9.80;3.40;;;;;;;14.41;58.56;98680.41;106233;1278;24303;-83
2022/05/14 06:32:35;;;;;;;9.90;3.90;;;;;;;14.48;58.65;98679.96;106138;1278;137518;-84
2022/05/14 06:35:04;;;;;;;6.90;3.20;;;;;;;14.56;58.22;98675.13;106312;1278;22804;-84
2022/05/14 06:37:31;;;;;;;7.60;3.50;;;;;;;14.62;57.88;98669.77;106317;1277;137673;-84
2022/05/14 06:39:58;;;;;;;6.10;3.10;;;;;;;14.71;57.79;98665.80;106161;1277;25470;-84
2022/05/14 06:42:39;;;;;;;7.10;3.10;;;;;;;14.79;57.18;98660.91;106476;1277;24355;-84
2022/05/14 06:45:07;;;;;;;9.10;3.60;;;;;;;14.85;57.11;98661.05;106106;1277;137469;-84
2022/05/14 06:47:34;;;;;;;6.80;3.40;;;;;;;14.95;56.93;98665.09;106345;1277;25263;-84
2022/05/14 06:50:01;;;;;;;7.20;4.00;;;;;;;15.01;56.47;98657.97;106292;1277;137904;-84
2022/05/14 06:52:28;;;;;;;6.70;3.40;;;;;;;15.09;56.41;98657.51;106216;1277;24554;-84
2022/05/14 06:54:56;;;;;;;12.40;3.80;;;;;;;15.16;56.02;98656.21;106402;1278;22557;-84
2022/05/14 06:57:23;;;;;;;4.50;3.10;;;;;;;15.24;55.20;98648.05;106027;1277;137700;-83
2022/05/14 06:59:50;;;;;;;6.00;3.00;;;;;;;15.32;55.37;98644.56;106070;1277;23922;-84
2022/05/14 07:02:19;;;;;;;4.60;2.90;;;;;;;15.40;55.39;98641.34;105990;1278;137798;-84
2022/05/14 07:07:42;;;;;;;8.00;3.20;;;;;;;15.59;54.42;98639.39;105961;1278;137919;-85
2022/05/14 07:10:09;;;;;;;11.90;3.20;;;;;;;15.65;54.24;98642.73;106068;1277;24139;-84
2022/05/14 07:12:36;;;;;;;4.90;2.80;;;;;;;15.73;54.10;98647.26;106022;1280;23915;-84
2022/05/14 07:15:06;;;;;;;6.30;2.90;;;;;;;15.81;53.97;98652.61;105894;1280;138963;-85
2022/05/14 07:17:33;;;;;;;4.80;2.70;;;;;;;15.90;53.57;98653.42;106451;1278;22710;-86
2022/05/14 07:20:00;;;;;;;6.30;2.80;;;;;;;15.98;52.94;98650.00;106353;1277;138542;-85
2022/05/14 07:22:27;;;;;;;8.10;2.60;;;;;;;16.05;52.40;98652.80;106533;1277;22770;-85
2022/05/14 07:24:54;;;;;;;4.70;2.40;;;;;;;16.13;52.71;98660.11;106175;1277;22626;-84
2022/05/14 07:27:21;;;;;;;4.40;2.30;;;;;;;16.23;52.97;98664.77;105912;1277;137829;-85
2022/05/14 07:29:48;;;;;;;5.60;2.40;;;;;;;16.27;51.93;98666.74;106115;1281;22568;-85
2022/05/14 07:32:29;;;;;;;5.70;2.70;;;;;;;16.26;51.77;98666.19;106452;1277;137650;-84
2022/05/14 07:34:56;;;;;;;4.50;2.70;;;;;;;16.33;52.49;98666.13;106188;1277;24450;-84
2022/05/14 07:37:29;;;;;;;10.60;3.80;;;;;;;16.40;52.18;98666.11;106307;1277;139367;-84
2022/05/14 07:40:15;;;;;;;5.50;2.70;;;;;;;16.44;51.54;98665.45;106206;1277;22775;-84
2022/05/14 07:42:57;;;;;;;6.60;2.40;;;;;;;16.54;51.08;98667.63;106328;1278;24322;-84
2022/05/14 07:45:32;;;;;;;5.50;2.60;;;;;;;16.67;50.52;98665.33;106129;1277;137803;-83
2022/05/14 07:48:04;;;;;;;6.40;2.60;;;;;;;16.82;50.11;98660.52;106198;1277;22564;-83
2022/05/14 07:50:31;;;;;;;7.90;3.00;;;;;;;16.89;49.40;98657.97;105931;1278;137712;-83
2022/05/14 07:52:59;;;;;;;6.00;2.40;;;;;;;16.86;49.80;98658.46;106359;1277;24386;-85
2022/05/14 07:55:26;;;;;;;4.80;2.10;;;;;;;16.87;49.05;98654.67;106651;1277;137811;-83
2022/05/14 07:57:53;;;;;;;5.80;2.20;;;;;;;16.86;47.93;98654.89;106742;1278;26490;-83
2022/05/14 08:00:20;;;;;;;5.30;2.00;;;;;;;16.88;48.12;98657.91;106613;1277;22618;-83
2022/05/14 08:02:47;;;;;;;5.40;2.30;;;;;;;17.04;49.08;98660.38;106011;1278;138137;-82
2022/05/14 08:05:28;;;;;;;3.80;1.90;;;;;;;17.23;47.78;98661.53;106304;1277;22561;-84
2022/05/14 08:07:57;;;;;;;8.80;2.40;;;;;;;17.38;47.09;98664.09;106199;1277;138119;-83
2022/05/14 08:10:25;;;;;;;5.50;2.40;;;;;;;17.51;46.48;98666.11;106193;1277;22569;-82
2022/05/14 08:12:55;;;;;;;8.10;2.70;;;;;;;17.58;46.58;98660.05;106131;1277;24420;-83
2022/05/14 08:15:25;;;;;;;4.90;2.20;;;;;;;17.76;46.48;98655.52;105943;1278;138113;-83
2022/05/14 08:17:53;;;;;;;6.40;2.70;;;;;;;17.78;46.27;98657.59;106052;1278;22883;-83
2022/05/14 08:20:21;;;;;;;8.80;2.70;;;;;;;17.82;46.13;98655.30;106303;1277;137730;-84
2022/05/14 08:25:30;;;;;;;5.90;2.50;;;;;;;17.96;46.73;98647.98;106062;1278;137653;-84
2022/05/14 08:27:57;;;;;;;5.80;2.70;;;;;;;18.17;45.64;98642.46;106482;1277;24382;-81
2022/05/14 08:30:32;;;;;;;6.10;2.50;;;;;;;18.35;45.14;98643.98;106500;1277;22625;-82
2022/05/14 08:33:13;;;;;;;6.30;2.70;;;;;;;18.40;44.39;98645.37;106198;1277;138297;-83
2022/05/14 08:35:41;;;;;;;6.00;2.30;;;;;;;18.43;44.75;98641.52;106408;1277;24443;-84
2022/05/14 08:38:13;;;;;;;7.90;2.30;;;;;;;18.58;44.50;98637.17;106073;1278;137567;-84
2022/05/14 08:40:42;;;;;;;4.80;2.40;;;;;;;18.72;44.67;98630.73;106321;1278;24400;-83
2022/05/14 08:43:19;;;;;;;7.20;2.40;;;;;;;18.74;43.48;98633.30;106802;1277;24543;-83
2022/05/14 08:45:47;;;;;;;5.20;2.50;;;;;;;18.70;43.66;98630.54;106269;1277;137690;-84
2022/05/14 08:48:36;;;;;;;4.40;2.00;;;;;;;18.65;43.83;98630.33;105912;1278;22546;-84
2022/05/14 08:51:13;;;;;;;4.80;2.10;;;;;;;18.56;43.65;98633.29;105760;1280;137658;-84
2022/05/14 08:53:41;;;;;;;3.70;2.20;;;;;;;18.68;44.13;98626.26;106186;1277;25490;-84
2022/05/14 08:56:29;;;;;;;4.50;1.60;;;;;;;18.90;43.67;98624.79;106201;1278;137789;-86
2022/05/14 08:59:21;;;;;;;3.20;1.50;;;;;;;19.07;43.18;98621.70;106769;1277;22540;-85
2022/05/14 09:01:48;;;;;;;5.20;1.90;;;;;;;19.01;42.95;98619.14;106322;1277;138892;-83
2022/05/14 09:04:17;;;;;;;7.20;1.90;;;;;;;18.95;42.49;98621.98;106052;1278;22550;-82
2022/05/14 09:06:45;;;;;;;6.10;1.60;;;;;;;19.02;42.81;98618.79;106437;1277;22544;-83
2022/05/14 09:09:12;;;;;;;4.30;1.60;;;;;;;19.18;42.31;98614.59;106121;1277;137499;-82
2022/05/14 09:11:46;;;;;;;5.90;1.90;;;;;;;19.31;42.58;98611.70;106163;1280;22704;-84
2022/05/14 09:14:29;;;;;;;3.00;1.40;;;;;;;19.29;41.37;98607.80;106118;1277;137805;-82
2022/05/14 09:17:20;;;;;;;4.40;1.80;;;;;;;19.18;42.01;98607.26;106368;1277;22540;-83
2022/05/14 09:19:50;;;;;;;6.60;2.40;;;;;;;19.07;42.20;98604.05;106155;1277;137805;-79
2022/05/14 09:22:40;;;;;;;5.60;2.20;;;;;;;19.12;42.18;98607.83;106020;1277;22666;-80
2022/05/14 09:25:20;;;;;;;3.20;1.60;;;;;;;19.33;42.15;98601.95;106204;1277;30295;-79
2022/05/14 09:28:05;;;;;;;8.20;2.40;;;;;;;19.47;41.68;98601.73;106618;1277;138654;-78
2022/05/14 09:30:55;;;;;;;7.00;2.40;;;;;;;19.50;41.62;98605.72;107151;1277;24176;-79
2022/05/14 09:33:34;;;;;;;4.10;2.50;;;;;;;19.46;42.11;98600.71;106219;1277;137649;-79
2022/05/14 09:36:04;;;;;;;6.20;2.10;;;;;;;19.56;42.01;98607.24;107873;1277;22710;-78
2022/05/14 09:38:32;;;;;;;7.90;2.20;;;;;;;19.73;41.00;98601.73;107834;1277;137513;-79
2022/05/14 09:41:18;;;;;;;7.10;2.40;;;;;;;19.83;40.64;98597.77;106651;1277;22574;-80
2022/05/14 09:43:45;;;;;;;3.00;2.20;;;;;;;19.79;40.98;98602.02;106333;1277;138258;-79
2022/05/14 09:46:26;;;;;;;6.00;1.90;;;;;;;19.95;40.83;98601.91;106271;1278;22583;-78
2022/05/14 09:49:09;;;;;;;3.90;1.50;;;;;;;20.16;40.07;98598.81;105972;1278;24323;-78
2022/05/14 09:51:46;;;;;;;;;;;;;;;20.45;39.66;98593.68;106085;1278;137656;-79
2022/05/14 09:54:23;;;;;;;8.30;2.10;;;;;;;20.35;37.82;98593.27;105984;1277;25260;-78
2022/05/14 09:57:24;;;;;;;5.80;1.30;;;;;;;20.34;38.47;98591.08;106071;1278;137826;-78
2022/05/14 09:59:54;;;;;;;6.70;1.90;;;;;;;20.45;39.10;98585.39;106395;1277;22718;-79
2022/05/14 10:02:44;;;;;;;4.40;1.60;;;;;;;20.57;38.74;98586.23;106148;1278;137576;-79
2022/05/14 10:05:34;;;;;;;5.70;2.00;;;;;;;20.72;37.92;98580.23;105971;1277;24217;-79
2022/05/14 10:08:21;;;;;;;9.90;1.70;;;;;;;20.31;37.85;98586.60;105850;1277;137673;-79
2022/05/14 10:11:08;;;;;;;2.80;1.40;;;;;;;20.00;39.20;98591.38;106292;1278;22574;-79
2022/05/14 10:14:26;;;;;;;7.60;2.20;;;;;;;19.94;39.14;98584.30;105678;1278;235568;-79
2022/05/14 10:17:02;;;;;;;8.60;2.30;;;;;;;20.04;39.33;98588.83;105898;1277;30375;-78
2022/05/14 10:19:48;;;;;;;3.50;1.50;;;;;;;20.24;39.59;98589.79;106282;1277;22536;-80
2022/05/14 10:28:26;;;;;;;4.90;1.80;;;;;;;20.01;37.86;98580.37;105960;1277;137516;-78
2022/05/14 10:31:03;;;;;;;4.40;1.60;;;;;;;19.97;39.03;98579.66;106202;1277;22724;-79
2022/05/14 10:33:32;;;;;;;7.40;1.50;;;;;;;20.29;38.52;98572.88;106332;1278;137634;-79
2022/05/14 10:36:17;;;;;;;7.30;1.70;;;;;;;20.34;38.57;98571.46;106380;1278;22642;-79
2022/05/14 10:38:53;;;;;;;4.80;1.70;;;;;;;20.43;39.11;98575.41;106061;1277;137489;-79
2022/05/14 10:41:31;;;;;;;5.10;1.50;;;;;;;20.70;38.31;98570.52;106321;1277;22557;-79
2022/05/14 10:44:03;;;;;;;2.60;1.40;;;;;;;20.93;37.23;98568.33;106215;1278;137690;-79
2022/05/14 10:46:34;;;;;;;5.40;1.80;;;;;;;20.93;36.71;98568.70;106331;1278;22586;-78
2022/05/14 10:49:09;;;;;;;4.30;1.40;;;;;;;20.95;36.63;98561.08;105831;1277;22592;-79
2022/05/14 10:51:43;;;;;;;5.40;1.60;;;;;;;20.83;36.44;98560.38;106219;1277;137854;-78
2022/05/14 10:54:23;;;;;;;5.30;1.30;;;;;;;20.86;36.91;98557.83;106063;1277;22550;-79
2022/05/14 10:57:00;;;;;;;4.60;1.40;;;;;;;20.84;36.93;98555.27;106185;1277;137588;-79
2022/05/14 10:59:40;;;;;;;5.30;2.20;;;;;;;20.72;36.60;98552.45;106523;1277;22544;-78
2022/05/14 11:02:23;;;;;;;2.90;1.70;;;;;;;20.58;36.52;98553.16;106909;1276;137724;-79
2022/05/14 11:04:51;;;;;;;3.80;1.70;;;;;;;20.47;36.74;98554.76;106946;1277;22589;-79
2022/05/14 11:07:37;;;;;;;8.40;1.70;;;;;;;20.24;36.84;98549.23;106773;1277;23470;-78
2022/05/14 11:10:22;;;;;;;3.00;1.90;;;;;;;20.07;36.96;98548.40;106781;1277;137422;-79
2022/05/14 11:12:50;;;;;;;2.90;1.30;;;;;;;19.97;37.88;98546.70;105882;1277;24038;-79
2022/05/14 11:15:25;;;;;;;4.30;1.40;;;;;;;19.88;37.76;98554.17;106337;1277;137706;-79
2022/05/14 11:18:11;;;;;;;4.50;1.70;;;;;;;19.96;37.65;98545.50;106243;1280;24268;-79
2022/05/14 11:20:52;;;;;;;6.00;1.30;;;;;;;20.32;37.85;98541.07;106276;1277;137560;-78
2022/05/14 11:23:19;;;;;;;4.50;1.70;;;;;;;20.69;37.35;98537.95;106038;1278;22575;-78
2022/05/14 11:25:47;;;;;;;5.30;1.50;;;;;;;20.93;36.53;98537.96;106015;1277;22538;-78
2022/05/14 11:28:17;;;;;;;3.10;1.30;;;;;;;21.08;36.50;98541.91;106089;1278;137415;-78
2022/05/14 11:30:56;;;;;;;7.70;1.80;;;;;;;21.27;36.89;98535.68;106103;1278;22767;-79
2022/05/14 11:33:29;;;;;;;6.20;1.20;;;;;;;21.45;36.12;98541.52;106082;1277;137840;-79
2022/05/14 11:36:16;;;;;;;4.40;1.50;;;;;;;21.65;34.56;98536.38;106559;1277;22582;-79
2022/05/14 11:38:47;;;;;;;7.10;1.30;;;;;;;21.93;34.76;98524.17;106282;1278;138442;-79
2022/05/14 11:41:28;;;;;;;4.50;1.20;;;;;;;22.31;34.47;98525.09;106820;1277;23856;-78
2022/05/14 11:43:58;;;;;;;4.10;1.50;;;;;;;22.53;33.27;98521.52;105667;1278;138461;-78
2022/05/14 11:46:29;;;;;;;3.70;1.40;;;;;;;22.66;33.06;98521.27;106162;1277;24261;-78
2022/05/14 11:49:20;;;;;;;5.30;1.50;;;;;;;22.90;33.36;98531.53;106461;1277;30561;-78
2022/05/14 11:51:53;;;;;;;4.40;1.70;;;;;;;23.20;33.05;98527.46;106366;1277;137517;-78
2022/05/14 11:54:36;;;;;;;5.10;1.50;;;;;;;23.46;32.49;98537.35;106131;1277;24849;-77
2022/05/14 11:57:13;;;;;;;3.70;1.60;;;;;;;23.67;32.07;98529.83;106070;1277;137995;-77
2022/05/14 11:59:40;;;;;;;6.80;1.70;;;;;;;23.85;31.88;98528.02;106135;1277;25257;-77
2022/05/14 12:02:19;;;;;;;5.30;1.70;;;;;;;23.68;31.28;98522.11;106092;1277;138809;-79
2022/05/14 12:04:53;;;;;;;4.60;1.40;;;;;;;23.29;30.88;98524.23;106157;1277;22551;-77
2022/05/14 12:07:40;;;;;;;3.40;1.60;;;;;;;23.10;32.16;98523.77;105847;1278;22579;-77